createdAt,value
2018-05-24T00:01:04.000Z,31.5
2018-05-24T00:02:20.000Z,31.5
2018-05-24T00:03:20.000Z,31.5
2018-05-24T00:05:20.000Z,31.6
2018-05-24T00:07:04.000Z,31.7
2018-05-24T00:08:20.000Z,31.6
2018-05-24T00:10:04.000Z,31.6
2018-05-24T00:11:20.000Z,31.6
2018-05-24T00:12:20.000Z,31.6
2018-05-24T00:13:20.000Z,31.6
2018-05-24T00:15:20.000Z,31.6
2018-05-24T00:17:04.000Z,31.6
2018-05-24T00:18:20.000Z,31.5
2018-05-24T00:20:20.000Z,31.6
2018-05-24T00:21:20.000Z,31.6
2018-05-24T00:22:20.000Z,31.6
2018-05-24T00:24:20.000Z,31.7
2018-05-24T00:25:20.000Z,31.7
2018-05-24T00:26:20.000Z,31.8
2018-05-24T00:28:20.000Z,31.8
2018-05-24T00:29:20.000Z,31.8
2018-05-24T00:30:20.000Z,31.9
2018-05-24T00:32:20.000Z,31.9
2018-05-24T00:33:20.000Z,31.9
2018-05-24T00:35:20.000Z,31.9
2018-05-24T00:36:20.000Z,31.9
2018-05-24T00:37:20.000Z,31.9
2018-05-24T00:38:20.000Z,31.9
2018-05-24T00:40:20.000Z,31.9
2018-05-24T00:42:20.000Z,31.8
2018-05-24T00:44:20.000Z,31.7
2018-05-24T00:46:20.000Z,31.7
2018-05-24T00:48:20.000Z,31.6
2018-05-24T00:50:20.000Z,31.5
2018-05-24T00:52:20.000Z,31.5
2018-05-24T00:53:20.000Z,31.5
2018-05-24T00:54:20.000Z,31.6
2018-05-24T00:56:20.000Z,31.7
2018-05-24T00:57:20.000Z,31.8
2018-05-24T00:59:20.000Z,31.8
2018-05-24T01:00:20.000Z,31.8
2018-05-24T01:01:20.000Z,31.8
2018-05-24T01:03:20.000Z,31.8
2018-05-24T01:05:20.000Z,31.8
2018-05-24T01:07:20.000Z,31.7
2018-05-24T01:09:20.000Z,31.6
2018-05-24T01:11:20.000Z,31.6
2018-05-24T01:12:20.000Z,31.6
2018-05-24T01:14:20.000Z,31.7
2018-05-24T01:16:20.000Z,31.6
2018-05-24T01:18:20.000Z,31.6
2018-05-24T01:19:20.000Z,31.6
2018-05-24T01:20:20.000Z,31.7
2018-05-24T01:22:20.000Z,31.7
2018-05-24T01:23:20.000Z,31.7
2018-05-24T01:25:20.000Z,31.7
2018-05-24T01:26:20.000Z,31.6
2018-05-24T01:28:20.000Z,31.6
2018-05-24T01:29:20.000Z,31.6
2018-05-24T01:31:20.000Z,31.6
2018-05-24T01:32:20.000Z,31.6
2018-05-24T01:33:20.000Z,31.7
2018-05-24T01:35:20.000Z,31.7
2018-05-24T01:37:20.000Z,31.6
2018-05-24T01:39:20.000Z,31.6
2018-05-24T01:41:20.000Z,31.5
2018-05-24T01:43:20.000Z,31.4
2018-05-24T01:44:20.000Z,31.4
2018-05-24T01:46:20.000Z,31.5
2018-05-24T01:47:20.000Z,31.5
2018-05-24T01:49:20.000Z,31.6
2018-05-24T01:50:20.000Z,31.6
2018-05-24T01:51:20.000Z,31.6
2018-05-24T01:53:20.000Z,31.6
2018-05-24T01:55:20.000Z,31.6
2018-05-24T01:57:20.000Z,31.6
2018-05-24T01:58:20.000Z,31.6
2018-05-24T02:00:20.000Z,31.6
2018-05-24T02:02:20.000Z,31.5
2018-05-24T02:03:20.000Z,31.5
2018-05-24T02:05:20.000Z,31.5
2018-05-24T02:06:20.000Z,31.6
2018-05-24T02:07:20.000Z,31.6
2018-05-24T02:09:20.000Z,31.6
2018-05-24T02:10:20.000Z,31.6
2018-05-24T02:11:20.000Z,31.6
2018-05-24T02:12:20.000Z,31.7
2018-05-24T02:14:20.000Z,31.8
2018-05-24T02:15:20.000Z,31.8
2018-05-24T02:17:05.000Z,31.9
2018-05-24T02:18:20.000Z,31.8
2018-05-24T02:19:20.000Z,31.8
2018-05-24T02:21:20.000Z,31.8
2018-05-24T02:23:20.000Z,31.8
2018-05-24T02:25:05.000Z,31.2
2018-05-24T02:26:20.000Z,31.7
2018-05-24T02:27:20.000Z,31.7
2018-05-24T02:29:20.000Z,31.8
2018-05-24T02:31:20.000Z,31.7
2018-05-24T02:32:20.000Z,31.7
2018-05-24T02:34:20.000Z,31.7
2018-05-24T02:36:20.000Z,31.7
2018-05-24T02:37:20.000Z,31.7
2018-05-24T02:39:20.000Z,31.7
2018-05-24T02:41:20.000Z,31.7
2018-05-24T02:42:20.000Z,31.7
2018-05-24T02:44:05.000Z,31.7
2018-05-24T02:45:20.000Z,31.7
2018-05-24T02:46:20.000Z,31.7
2018-05-24T02:48:20.000Z,31.7
2018-05-24T02:50:20.000Z,31.6
2018-05-24T02:51:20.000Z,31.6
2018-05-24T02:52:20.000Z,31.6
2018-05-24T02:54:20.000Z,31.6
2018-05-24T02:56:20.000Z,31.6
2018-05-24T02:57:20.000Z,31.6
2018-05-24T02:58:20.000Z,31.6
2018-05-24T02:59:20.000Z,31.7
2018-05-24T03:00:20.000Z,31.8
2018-05-24T03:02:05.000Z,31.9
2018-05-24T03:03:20.000Z,31.8
2018-05-24T03:05:05.000Z,31.8
2018-05-24T03:06:20.000Z,31.8
2018-05-24T03:08:20.000Z,31.7
2018-05-24T03:09:20.000Z,31.7
2018-05-24T03:11:20.000Z,31.7
2018-05-24T03:12:20.000Z,31.7
2018-05-24T03:14:20.000Z,31.8
2018-05-24T03:15:20.000Z,31.8
2018-05-24T03:16:20.000Z,31.8
2018-05-24T03:18:20.000Z,31.8
2018-05-24T03:20:20.000Z,31.7
2018-05-24T03:22:20.000Z,31.6
2018-05-24T03:23:20.000Z,31.6
2018-05-24T03:24:20.000Z,31.7
2018-05-24T03:25:20.000Z,31.7
2018-05-24T03:26:20.000Z,31.8
2018-05-24T03:28:20.000Z,31.7
2018-05-24T03:29:20.000Z,31.7
2018-05-24T03:30:20.000Z,31.7
2018-05-24T03:32:20.000Z,31.7
2018-05-24T03:34:20.000Z,31.6
2018-05-24T03:36:20.000Z,31.5
2018-05-24T03:37:20.000Z,31.5
2018-05-24T03:39:20.000Z,31.5
2018-05-24T03:41:20.000Z,31.5
2018-05-24T03:43:20.000Z,31.4
2018-05-24T03:45:20.000Z,31.4
2018-05-24T03:46:20.000Z,31.3
2018-05-24T03:48:20.000Z,31.3
2018-05-24T03:50:20.000Z,31.4
2018-05-24T03:52:19.000Z,31.4
2018-05-24T03:54:19.000Z,31.4
2018-05-24T03:56:19.000Z,31.4
2018-05-24T03:58:19.000Z,31.3
2018-05-24T03:59:19.000Z,31.3
2018-05-24T04:00:19.000Z,31.3
2018-05-24T04:01:19.000Z,31.4
2018-05-24T04:03:19.000Z,31.3
2018-05-24T04:04:19.000Z,31.3
2018-05-24T04:06:19.000Z,31.4
2018-05-24T04:07:19.000Z,31.5
2018-05-24T04:09:19.000Z,31.6
2018-05-24T04:10:19.000Z,31.6
2018-05-24T04:12:19.000Z,31.6
2018-05-24T04:14:19.000Z,31.6
2018-05-24T04:15:19.000Z,31.6
2018-05-24T04:17:19.000Z,31.6
2018-05-24T04:18:19.000Z,31.6
2018-05-24T04:20:19.000Z,31.6
2018-05-24T04:22:19.000Z,31.4
2018-05-24T04:23:19.000Z,31.2
2018-05-24T04:25:19.000Z,30.7
2018-05-24T04:27:19.000Z,30.1
2018-05-24T04:28:19.000Z,29.9
2018-05-24T04:29:19.000Z,29.7
2018-05-24T04:31:19.000Z,29.5
2018-05-24T04:32:19.000Z,29.4
2018-05-24T04:34:19.000Z,29.2
2018-05-24T04:35:19.000Z,29.1
2018-05-24T04:37:19.000Z,28.9
2018-05-24T04:39:19.000Z,28.6
2018-05-24T04:41:04.000Z,28.5
2018-05-24T04:42:19.000Z,28.4
2018-05-24T04:43:19.000Z,28.4
2018-05-24T04:44:19.000Z,28.4
2018-05-24T04:46:19.000Z,28.5
2018-05-24T04:47:19.000Z,28.5
2018-05-24T04:48:19.000Z,28.5
2018-05-24T04:49:19.000Z,28.5
2018-05-24T04:51:19.000Z,28.4
2018-05-24T04:52:19.000Z,28.4
2018-05-24T04:54:19.000Z,28.3
2018-05-24T04:55:20.000Z,28.3
2018-05-24T04:57:20.000Z,28.2
2018-05-24T04:59:20.000Z,28
2018-05-24T05:01:20.000Z,27.9
2018-05-24T05:02:20.000Z,27.9
2018-05-24T05:04:20.000Z,27.9
2018-05-24T05:05:20.000Z,28
2018-05-24T05:06:20.000Z,28
2018-05-24T05:07:20.000Z,28.1
2018-05-24T05:09:05.000Z,28.1
2018-05-24T05:10:20.000Z,28
2018-05-24T05:11:20.000Z,28
2018-05-24T05:13:20.000Z,28
2018-05-24T05:15:20.000Z,27.9
2018-05-24T05:18:38.000Z,28.1
2018-05-24T05:20:38.000Z,28.1
2018-05-24T05:21:38.000Z,28.1
2018-05-24T05:23:23.000Z,28.1
2018-05-24T05:24:38.000Z,28
2018-05-24T05:25:38.000Z,27.9
2018-05-24T05:26:38.000Z,27.9
2018-05-24T05:28:38.000Z,27.8
2018-05-24T05:29:38.000Z,27.8
2018-05-24T05:31:38.000Z,27.8
2018-05-24T05:33:38.000Z,27.6
2018-05-24T05:34:38.000Z,27.5
2018-05-24T05:36:38.000Z,27.4
2018-05-24T05:37:38.000Z,27.4
2018-05-24T05:38:38.000Z,27.4
2018-05-24T05:39:38.000Z,27.5
2018-05-24T05:41:38.000Z,27.5
2018-05-24T05:43:38.000Z,27.5
2018-05-24T05:45:38.000Z,27.4
2018-05-24T05:46:38.000Z,27.4
2018-05-24T05:47:38.000Z,27.5
2018-05-24T05:49:38.000Z,27.6
2018-05-24T05:50:38.000Z,27.6
2018-05-24T05:52:38.000Z,27.6
2018-05-24T05:53:38.000Z,27.7
2018-05-24T05:55:38.000Z,27.8
2018-05-24T05:57:23.000Z,27.8
2018-05-24T05:58:39.000Z,27.8
2018-05-24T06:00:39.000Z,27.8
2018-05-24T06:01:39.000Z,27.8
2018-05-24T06:03:39.000Z,27.9
2018-05-24T06:05:39.000Z,28
2018-05-24T06:06:39.000Z,28.1
2018-05-24T06:07:39.000Z,28.3
2018-05-24T06:08:39.000Z,28.4
2018-05-24T06:09:39.000Z,28.5
2018-05-24T06:11:39.000Z,28.8
2018-05-24T06:13:39.000Z,29
2018-05-24T06:14:39.000Z,29
2018-05-24T06:15:39.000Z,29
2018-05-24T06:16:39.000Z,29.1
2018-05-24T06:17:39.000Z,29.2
2018-05-24T06:19:39.000Z,29.4
2018-05-24T06:21:23.000Z,29.4
2018-05-24T06:22:39.000Z,29.4
2018-05-24T06:23:39.000Z,29.4
2018-05-24T06:25:39.000Z,29.6
2018-05-24T06:27:39.000Z,29.6
2018-05-24T06:28:39.000Z,29.6
2018-05-24T06:30:39.000Z,29.7
2018-05-24T06:32:39.000Z,29.7
2018-05-24T06:33:39.000Z,29.8
2018-05-24T06:35:39.000Z,29.8
2018-05-24T06:36:39.000Z,29.8
2018-05-24T06:38:39.000Z,29.9
2018-05-24T06:40:23.000Z,29.9
2018-05-24T06:41:39.000Z,29.8
2018-05-24T06:43:39.000Z,29.8
2018-05-24T06:44:39.000Z,29.7
2018-05-24T06:45:39.000Z,29.7
2018-05-24T06:46:39.000Z,29.8
2018-05-24T06:48:39.000Z,29.9
2018-05-24T06:50:39.000Z,29.9
2018-05-24T06:52:39.000Z,29.6
2018-05-24T06:53:39.000Z,29.5
2018-05-24T06:54:39.000Z,29.5
2018-05-24T06:56:39.000Z,29.4
2018-05-24T06:57:39.000Z,29.3
2018-05-24T06:59:23.000Z,29.1
2018-05-24T07:00:39.000Z,29
2018-05-24T07:02:38.000Z,28.9
2018-05-24T07:04:39.000Z,28.8
2018-05-24T07:05:39.000Z,28.9
2018-05-24T07:07:38.000Z,28.9
2018-05-24T07:08:39.000Z,29
2018-05-24T07:10:38.000Z,29.1
2018-05-24T07:12:23.000Z,29
2018-05-24T07:13:38.000Z,29
2018-05-24T07:14:38.000Z,29
2018-05-24T07:15:39.000Z,29
2018-05-24T07:17:38.000Z,29
2018-05-24T07:18:38.000Z,29.1
2018-05-24T07:19:38.000Z,29.1
2018-05-24T07:20:39.000Z,29.3
2018-05-24T07:22:38.000Z,29.4
2018-05-24T07:23:39.000Z,29.4
2018-05-24T07:24:39.000Z,29.4
2018-05-24T07:26:39.000Z,29.3
2018-05-24T07:27:39.000Z,29.3
2018-05-24T07:29:23.000Z,29.2
2018-05-24T07:30:38.000Z,29.1
2018-05-24T07:32:38.000Z,29.1
2018-05-24T07:34:23.000Z,29.1
2018-05-24T07:35:38.000Z,29.1
2018-05-24T07:37:38.000Z,29.2
2018-05-24T07:38:38.000Z,29.2
2018-05-24T07:39:38.000Z,29.3
2018-05-24T07:40:38.000Z,29.4
2018-05-24T07:42:38.000Z,29.7
2018-05-24T07:44:38.000Z,29.9
2018-05-24T07:45:39.000Z,30
2018-05-24T07:47:38.000Z,30
2018-05-24T07:48:39.000Z,30
2018-05-24T07:49:39.000Z,29.9
2018-05-24T07:51:39.000Z,29.8
2018-05-24T07:53:38.000Z,29.8
2018-05-24T07:54:39.000Z,29.8
2018-05-24T07:56:38.000Z,29.8
2018-05-24T07:58:38.000Z,29.8
2018-05-24T07:59:39.000Z,29.8
2018-05-24T08:01:39.000Z,29.8
2018-05-24T08:03:23.000Z,29.7
2018-05-24T08:04:38.000Z,29.7
2018-05-24T08:05:38.000Z,29.7
2018-05-24T08:07:38.000Z,29.7
2018-05-24T08:08:38.000Z,29.8
2018-05-24T08:09:38.000Z,29.9
2018-05-24T08:10:38.000Z,30.1
2018-05-24T08:12:38.000Z,30.3
2018-05-24T08:13:38.000Z,30.3
2018-05-24T08:14:38.000Z,30.3
2018-05-24T08:15:38.000Z,30.3
2018-05-24T08:16:38.000Z,30.4
2018-05-24T08:18:38.000Z,30.4
2018-05-24T08:20:38.000Z,30.4
2018-05-24T08:21:38.000Z,30.4
2018-05-24T08:22:38.000Z,30.4
2018-05-24T08:24:38.000Z,30.5
2018-05-24T08:25:38.000Z,30.7
2018-05-24T08:27:38.000Z,30.8
2018-05-24T08:29:38.000Z,30.9
2018-05-24T08:31:38.000Z,30.9
2018-05-24T08:32:38.000Z,30.9
2018-05-24T08:34:38.000Z,31
2018-05-24T08:35:38.000Z,31
2018-05-24T08:37:23.000Z,31.1
2018-05-24T08:38:38.000Z,31.1
2018-05-24T08:39:38.000Z,31.2
2018-05-24T08:41:38.000Z,31.2
2018-05-24T08:43:38.000Z,31.2
2018-05-24T08:45:38.000Z,31.2
2018-05-24T08:47:38.000Z,31.1
2018-05-24T08:49:38.000Z,31.1
2018-05-24T08:51:38.000Z,30.9
2018-05-24T08:53:38.000Z,30.6
2018-05-24T08:55:38.000Z,30.5
2018-05-24T08:56:38.000Z,30.5
2018-05-24T08:58:23.000Z,30.4
2018-05-24T08:59:38.000Z,30.3
2018-05-24T09:01:38.000Z,30.3
2018-05-24T09:02:38.000Z,30.3
2018-05-24T09:04:38.000Z,30.2
2018-05-24T09:05:38.000Z,30.3
2018-05-24T09:07:38.000Z,30.4
2018-05-24T09:09:38.000Z,30.4
2018-05-24T09:11:38.000Z,30.3
2018-05-24T09:12:38.000Z,30.3
2018-05-24T09:14:38.000Z,30.3
2018-05-24T09:16:38.000Z,30.3
2018-05-24T09:17:38.000Z,30.3
2018-05-24T09:19:38.000Z,30.3
2018-05-24T09:20:38.000Z,30.3
2018-05-24T09:22:38.000Z,30.3
2018-05-24T09:24:38.000Z,30.1
2018-05-24T09:26:38.000Z,30
2018-05-24T09:27:38.000Z,30
2018-05-24T09:28:38.000Z,30
2018-05-24T09:30:38.000Z,30
2018-05-24T09:32:38.000Z,30
2018-05-24T09:33:38.000Z,30
2018-05-24T09:34:38.000Z,30
2018-05-24T09:36:38.000Z,30
2018-05-24T09:38:38.000Z,30
2018-05-24T09:39:38.000Z,30
2018-05-24T09:41:38.000Z,30
2018-05-24T09:43:38.000Z,30
2018-05-24T09:45:38.000Z,30
2018-05-24T09:46:38.000Z,30
2018-05-24T09:48:38.000Z,30
2018-05-24T09:50:38.000Z,30
2018-05-24T09:52:38.000Z,30
2018-05-24T09:54:38.000Z,30.1
2018-05-24T09:56:38.000Z,30.1
2018-05-24T09:57:38.000Z,30.1
2018-05-24T09:59:23.000Z,30.2
2018-05-24T10:00:38.000Z,30.2
2018-05-24T10:02:38.000Z,30.2
2018-05-24T10:03:38.000Z,30.2
2018-05-24T10:05:38.000Z,30.2
2018-05-24T10:07:38.000Z,30.1
2018-05-24T10:08:38.000Z,30.1
2018-05-24T10:10:38.000Z,30.1
2018-05-24T10:12:38.000Z,30
2018-05-24T10:14:38.000Z,30
2018-05-24T10:15:38.000Z,30
2018-05-24T10:16:38.000Z,30.1
2018-05-24T10:18:38.000Z,30.2
2018-05-24T10:19:38.000Z,30.3
2018-05-24T10:21:38.000Z,30.4
2018-05-24T10:25:24.000Z,30.1
2018-05-24T10:29:10.000Z,29.9
2018-05-24T10:31:10.000Z,30.1
2018-05-24T10:33:10.000Z,30.3
2018-05-24T10:35:10.000Z,30.5
2018-05-24T10:36:54.000Z,30.6
2018-05-24T10:38:10.000Z,30.7
2018-05-24T10:40:10.000Z,30.8
2018-05-24T10:42:10.000Z,30.8
2018-05-24T10:43:10.000Z,30.8
2018-05-24T10:45:10.000Z,30.9
2018-05-24T10:46:10.000Z,30.9
2018-05-24T10:47:10.000Z,31
2018-05-24T10:48:10.000Z,31
2018-05-24T10:50:10.000Z,31
2018-05-24T10:52:10.000Z,31
2018-05-24T10:54:10.000Z,30.9
2018-05-24T10:56:10.000Z,30.8
2018-05-24T10:58:10.000Z,30.8
2018-05-24T11:00:10.000Z,30.9
2018-05-24T11:02:10.000Z,30.9
2018-05-24T11:03:10.000Z,31
2018-05-24T11:05:10.000Z,31.1
2018-05-24T11:07:10.000Z,31.2
2018-05-24T11:09:10.000Z,31.1
2018-05-24T11:10:10.000Z,31.1
2018-05-24T11:12:10.000Z,31.5
2018-05-24T11:14:10.000Z,33.6
2018-05-24T11:15:10.000Z,34.8
2018-05-24T11:17:10.000Z,36.4
2018-05-24T11:19:10.000Z,37.1
2018-05-24T11:20:10.000Z,36.8
2018-05-24T11:21:10.000Z,36.5
2018-05-24T11:23:10.000Z,35.5
2018-05-24T11:24:10.000Z,35
2018-05-24T11:26:10.000Z,34.2
2018-05-24T11:27:10.000Z,33.9
2018-05-24T11:29:10.000Z,33.4
2018-05-24T11:31:10.000Z,32.9
2018-05-24T11:32:10.000Z,32.7
2018-05-24T11:33:10.000Z,32.6
2018-05-24T11:35:10.000Z,32.6
2018-05-24T11:36:10.000Z,32.6
2018-05-24T11:38:10.000Z,32.5
2018-05-24T11:40:10.000Z,32.4
2018-05-24T11:42:10.000Z,32.3
2018-05-24T11:43:10.000Z,32.4
2018-05-24T11:45:10.000Z,32.4
2018-05-24T11:46:10.000Z,32.4
2018-05-24T11:47:10.000Z,32.4
2018-05-24T11:49:10.000Z,32.5
2018-05-24T11:50:10.000Z,32.5
2018-05-24T11:52:10.000Z,32.5
2018-05-24T11:54:10.000Z,32.7
2018-05-24T11:55:54.000Z,33.1
2018-05-24T11:57:10.000Z,33.3
2018-05-24T11:59:10.000Z,33.6
2018-05-24T12:00:10.000Z,33.8
2018-05-24T12:02:10.000Z,34.2
2018-05-24T12:03:10.000Z,34.3
2018-05-24T12:05:10.000Z,34.7
2018-05-24T12:07:10.000Z,34.9
2018-05-24T12:08:10.000Z,35
2018-05-24T12:09:10.000Z,35.2
2018-05-24T12:10:10.000Z,35.3
2018-05-24T12:12:10.000Z,35.3
2018-05-24T12:14:10.000Z,35.2
2018-05-24T12:16:10.000Z,35
2018-05-24T12:18:10.000Z,34.7
2018-05-24T12:19:10.000Z,34.6
2018-05-24T12:20:10.000Z,34.4
2018-05-24T12:22:10.000Z,34
2018-05-24T12:24:10.000Z,33.8
2018-05-24T12:25:10.000Z,33.7
2018-05-24T12:27:10.000Z,33.5
2018-05-24T12:29:10.000Z,33.5
2018-05-24T12:30:10.000Z,33.4
2018-05-24T12:32:10.000Z,33.3
2018-05-24T12:33:10.000Z,33.2
2018-05-24T12:34:10.000Z,33.1
2018-05-24T12:47:55.000Z,30.3
2018-05-24T12:48:55.000Z,30.4
2018-05-24T12:50:55.000Z,30.5
2018-05-24T12:51:55.000Z,30.6
2018-05-24T12:53:55.000Z,30.8
2018-05-24T12:55:55.000Z,30.8
2018-05-24T12:57:55.000Z,30.8
2018-05-24T12:59:55.000Z,30.8
2018-05-24T13:00:55.000Z,30.8
2018-05-24T13:02:55.000Z,31
2018-05-24T13:03:55.000Z,31.1
2018-05-24T13:04:55.000Z,31.2
2018-05-24T13:05:55.000Z,31.4
2018-05-24T13:07:55.000Z,31.6
2018-05-24T13:09:55.000Z,31.8
2018-05-24T13:11:55.000Z,32
2018-05-24T13:13:55.000Z,32.2
2018-05-24T13:14:55.000Z,32.3
2018-05-24T13:15:55.000Z,32.4
2018-05-24T13:17:55.000Z,32.6
2018-05-24T13:19:55.000Z,32.6
2018-05-24T13:21:55.000Z,32.6
2018-05-24T13:22:55.000Z,32.6
2018-05-24T13:24:55.000Z,32.5
2018-05-24T13:26:55.000Z,32.3
2018-05-24T13:28:55.000Z,32.2
2018-05-24T13:30:55.000Z,32
2018-05-24T13:31:55.000Z,32
2018-05-24T13:32:55.000Z,32
2018-05-24T13:33:55.000Z,31.9
2018-05-24T13:34:55.000Z,31.9
2018-05-24T13:35:55.000Z,32
2018-05-24T13:36:55.000Z,32
2018-05-24T13:37:55.000Z,32.1
2018-05-24T13:39:55.000Z,32
2018-05-24T13:41:55.000Z,31.8
2018-05-24T13:43:55.000Z,31.6
2018-05-24T13:44:55.000Z,31.6
2018-05-24T13:45:55.000Z,31.6
2018-05-24T13:47:55.000Z,31.6
2018-05-24T13:48:55.000Z,31.6
2018-05-24T13:50:39.000Z,31.6
2018-05-24T13:51:55.000Z,31.5
2018-05-24T13:52:55.000Z,31.5
2018-05-24T13:54:55.000Z,31.5
2018-05-24T13:55:55.000Z,31.5
2018-05-24T13:57:55.000Z,31.5
2018-05-24T13:58:55.000Z,31.5
2018-05-24T14:00:55.000Z,31.4
2018-05-24T14:01:55.000Z,31.4
2018-05-24T14:02:55.000Z,31.4
2018-05-24T14:04:39.000Z,31.4
2018-05-24T14:05:55.000Z,31.3
2018-05-24T14:07:55.000Z,31.2
2018-05-24T14:09:55.000Z,31.1
2018-05-24T14:11:39.000Z,31.1
2018-05-24T14:12:55.000Z,30.9
2018-05-24T14:13:55.000Z,30.9
2018-05-24T14:15:55.000Z,30.9
2018-05-24T14:16:55.000Z,30.8
2018-05-24T14:17:55.000Z,30.8
2018-05-24T14:19:55.000Z,30.8
2018-05-24T14:21:55.000Z,30.7
2018-05-24T14:23:55.000Z,30.6
2018-05-24T14:24:55.000Z,30.5
2018-05-24T14:25:55.000Z,30.6
2018-05-24T14:27:55.000Z,30.7
2018-05-24T14:28:55.000Z,30.7
2018-05-24T14:30:55.000Z,30.8
2018-05-24T14:32:55.000Z,30.8
2018-05-24T14:34:40.000Z,30.9
2018-05-24T14:35:55.000Z,30.8
2018-05-24T14:37:55.000Z,30.8
2018-05-24T14:39:55.000Z,30.7
2018-05-24T14:41:55.000Z,30.7
2018-05-24T14:42:55.000Z,30.7
2018-05-24T14:44:55.000Z,30.8
2018-05-24T14:45:55.000Z,30.8
2018-05-24T14:47:55.000Z,30.7
2018-05-24T14:49:55.000Z,30.7
2018-05-24T14:50:55.000Z,30.6
2018-05-24T14:51:55.000Z,30.6
2018-05-24T14:52:55.000Z,30.6
2018-05-24T14:53:55.000Z,30.6
2018-05-24T14:55:40.000Z,30.7
2018-05-24T14:56:55.000Z,30.6
2018-05-24T14:58:55.000Z,30.5
2018-05-24T15:00:55.000Z,30.5
2018-05-24T15:02:55.000Z,30.4
2018-05-24T15:04:55.000Z,30.4
2018-05-24T15:06:55.000Z,30.3
2018-05-24T15:07:55.000Z,30.3
2018-05-24T15:09:55.000Z,30.4
2018-05-24T15:10:55.000Z,30.4
2018-05-24T15:11:55.000Z,30.4
2018-05-24T15:13:55.000Z,30.4
2018-05-24T15:15:55.000Z,30.3
2018-05-24T15:16:55.000Z,30.2
2018-05-24T15:18:55.000Z,30.2
2018-05-24T15:20:55.000Z,30.1
2018-05-24T15:22:55.000Z,30
2018-05-24T15:24:55.000Z,29.9
2018-05-24T15:25:55.000Z,29.9
2018-05-24T15:27:55.000Z,29.8
2018-05-24T15:29:55.000Z,29.8
2018-05-24T15:30:55.000Z,29.9
2018-05-24T15:31:55.000Z,29.9
2018-05-24T15:33:55.000Z,30
2018-05-24T15:34:55.000Z,30
2018-05-24T15:35:55.000Z,30.1
2018-05-24T15:37:55.000Z,30.1
2018-05-24T15:38:55.000Z,30.1
2018-05-24T15:39:55.000Z,30.2
2018-05-24T15:41:55.000Z,30.2
2018-05-24T15:43:55.000Z,30.1
2018-05-24T15:44:55.000Z,30.1
2018-05-24T15:46:55.000Z,30.1
2018-05-24T15:48:55.000Z,30.1
2018-05-24T15:49:55.000Z,30.1
2018-05-24T15:51:55.000Z,30.1
2018-05-24T15:52:55.000Z,30.1
2018-05-24T15:54:55.000Z,30.1
2018-05-24T15:55:55.000Z,30.1
2018-05-24T15:56:55.000Z,30.1
2018-05-24T15:58:55.000Z,30.1
2018-05-24T16:00:55.000Z,30
2018-05-24T16:02:55.000Z,29.9
2018-05-24T16:04:55.000Z,29.8
2018-05-24T16:06:55.000Z,29.7
2018-05-24T16:07:55.000Z,29.6
2018-05-24T16:08:55.000Z,29.6
2018-05-24T16:10:55.000Z,29.6
2018-05-24T16:11:55.000Z,29.6
2018-05-24T16:12:55.000Z,29.6
2018-05-24T16:14:40.000Z,29.7
2018-05-24T16:15:55.000Z,29.7
2018-05-24T16:17:55.000Z,29.7
2018-05-24T16:18:55.000Z,29.7
2018-05-24T16:20:55.000Z,29.7
2018-05-24T16:21:55.000Z,29.7
2018-05-24T16:23:55.000Z,30
2018-05-24T16:24:55.000Z,30.1
2018-05-24T16:26:55.000Z,30.4
2018-05-24T16:27:55.000Z,30.6
2018-05-24T16:29:55.000Z,30.8
2018-05-24T16:31:40.000Z,30.9
2018-05-24T16:32:55.000Z,31
2018-05-24T16:34:55.000Z,31
2018-05-24T16:35:55.000Z,31
2018-05-24T16:36:55.000Z,31.1
2018-05-24T16:38:55.000Z,31.1
2018-05-24T16:40:55.000Z,31.1
2018-05-24T16:42:55.000Z,31
2018-05-24T16:44:55.000Z,31
2018-05-24T16:45:55.000Z,31
2018-05-24T16:46:55.000Z,31.1
2018-05-24T16:48:55.000Z,31.2
2018-05-24T16:50:55.000Z,31.3
2018-05-24T16:51:55.000Z,31.3
2018-05-24T16:53:55.000Z,31.4
2018-05-24T16:54:55.000Z,31.5
2018-05-24T16:56:55.000Z,31.5
2018-05-24T16:57:55.000Z,31.5
2018-05-24T16:58:55.000Z,31.6
2018-05-24T16:59:55.000Z,31.6
2018-05-24T17:01:55.000Z,31.6
2018-05-24T17:02:55.000Z,31.6
2018-05-24T17:04:55.000Z,31.6
2018-05-24T17:06:55.000Z,31.6
2018-05-24T17:07:55.000Z,31.6
2018-05-24T17:09:40.000Z,31.6
2018-05-24T17:10:55.000Z,31.5
2018-05-24T17:11:55.000Z,31.5
2018-05-24T17:12:55.000Z,31.6
2018-05-24T17:14:40.000Z,31.6
2018-05-24T17:15:55.000Z,31.6
2018-05-24T17:16:55.000Z,31.6
2018-05-24T17:18:55.000Z,31.6
2018-05-24T17:19:55.000Z,31.6
2018-05-24T17:21:55.000Z,31.6
2018-05-24T17:23:40.000Z,31.6
2018-05-24T17:24:55.000Z,31.5
2018-05-24T17:25:55.000Z,31.5
2018-05-24T17:27:55.000Z,31.6
2018-05-24T17:29:55.000Z,31.5
2018-05-24T17:31:55.000Z,31.4
2018-05-24T17:33:55.000Z,31.3
2018-05-24T17:35:55.000Z,31.2
2018-05-24T17:37:56.000Z,31.2
2018-05-24T17:39:56.000Z,31.2
2018-05-24T17:41:56.000Z,31.2
2018-05-24T17:42:56.000Z,31.3
2018-05-24T17:44:56.000Z,31.3
2018-05-24T17:46:56.000Z,31.3
2018-05-24T17:48:56.000Z,31.3
2018-05-24T17:50:40.000Z,31.2
2018-05-24T17:51:56.000Z,31.2
2018-05-24T17:52:56.000Z,31.2
2018-05-24T17:53:56.000Z,31.3
2018-05-24T17:55:56.000Z,31.4
2018-05-24T17:56:56.000Z,31.4
2018-05-24T17:57:56.000Z,31.4
2018-05-24T17:59:56.000Z,31.4
2018-05-24T18:01:56.000Z,31.3
2018-05-24T18:03:56.000Z,31.3
2018-05-24T18:04:56.000Z,31.3
2018-05-24T18:06:56.000Z,31.3
2018-05-24T18:07:56.000Z,31.3
2018-05-24T18:09:56.000Z,31.3
2018-05-24T18:11:56.000Z,31.2
2018-05-24T18:12:56.000Z,31.2
2018-05-24T18:13:56.000Z,31.2
2018-05-24T18:15:56.000Z,31.3
2018-05-24T18:16:56.000Z,31.3
2018-05-24T18:17:56.000Z,31.3
2018-05-24T18:18:56.000Z,31.4
2018-05-24T18:20:56.000Z,31.4
2018-05-24T18:21:56.000Z,31.4
2018-05-24T18:22:56.000Z,31.5
2018-05-24T18:23:56.000Z,31.5
2018-05-24T18:25:40.000Z,31.5
2018-05-24T18:26:56.000Z,31.5
2018-05-24T18:28:56.000Z,31.4
2018-05-24T18:29:56.000Z,31.4
2018-05-24T18:31:56.000Z,31.4
2018-05-24T18:33:56.000Z,31.2
2018-05-24T18:35:56.000Z,31.1
2018-05-24T18:37:56.000Z,31.1
2018-05-24T18:38:56.000Z,31.1
2018-05-24T18:40:40.000Z,31.1
2018-05-24T18:41:55.000Z,31.1
2018-05-24T18:43:55.000Z,31.1
2018-05-24T18:45:55.000Z,31
2018-05-24T18:46:55.000Z,31.1
2018-05-24T18:48:55.000Z,31.1
2018-05-24T18:50:55.000Z,31.1
2018-05-24T18:51:55.000Z,31.1
2018-05-24T18:53:55.000Z,31.1
2018-05-24T18:54:55.000Z,31.1
2018-05-24T18:55:55.000Z,31.2
2018-05-24T18:57:55.000Z,31.2
2018-05-24T18:59:55.000Z,31.2
2018-05-24T19:01:55.000Z,31
2018-05-24T19:03:40.000Z,30.9
2018-05-24T19:04:55.000Z,30.9
2018-05-24T19:06:55.000Z,30.9
2018-05-24T19:07:55.000Z,30.9
2018-05-24T19:09:55.000Z,30.9
2018-05-24T19:11:55.000Z,30.9
2018-05-24T19:12:55.000Z,30.9
2018-05-24T19:13:55.000Z,31
2018-05-24T19:15:55.000Z,31.1
2018-05-24T19:17:55.000Z,31.1
2018-05-24T19:18:55.000Z,31.1
2018-05-24T19:20:55.000Z,31
2018-05-24T19:22:55.000Z,31
2018-05-24T19:23:55.000Z,31
2018-05-24T19:25:40.000Z,31
2018-05-24T19:26:55.000Z,30.9
2018-05-24T19:27:55.000Z,30.9
2018-05-24T19:28:55.000Z,31
2018-05-24T19:30:55.000Z,31
2018-05-24T19:31:55.000Z,31
2018-05-24T19:33:55.000Z,31
2018-05-24T19:34:55.000Z,31
2018-05-24T19:36:55.000Z,31
2018-05-24T19:37:55.000Z,31
2018-05-24T19:38:55.000Z,31
2018-05-24T19:39:55.000Z,31
2018-05-24T19:41:40.000Z,31.1
2018-05-24T19:42:55.000Z,31
2018-05-24T19:43:55.000Z,31
2018-05-24T19:45:55.000Z,30.9
2018-05-24T19:46:55.000Z,30.9
2018-05-24T19:48:55.000Z,30.9
2018-05-24T19:50:55.000Z,30.8
2018-05-24T19:51:55.000Z,30.8
2018-05-24T19:53:40.000Z,30.9
2018-05-24T19:54:55.000Z,30.9
2018-05-24T19:56:55.000Z,30.9
2018-05-24T19:58:55.000Z,30.8
2018-05-24T20:00:55.000Z,30.8
2018-05-24T20:02:55.000Z,30.8
2018-05-24T20:04:40.000Z,30.8
2018-05-24T20:05:55.000Z,30.8
2018-05-24T20:07:40.000Z,30.8
2018-05-24T20:08:55.000Z,30.8
2018-05-24T20:10:55.000Z,30.8
2018-05-24T20:11:55.000Z,30.8
2018-05-24T20:13:55.000Z,30.8
2018-05-24T20:14:55.000Z,30.8
2018-05-24T20:16:40.000Z,30.8
2018-05-24T20:17:55.000Z,30.8
2018-05-24T20:19:55.000Z,30.7
2018-05-24T20:21:55.000Z,30.7
2018-05-24T20:23:55.000Z,30.6
2018-05-24T20:25:55.000Z,30.6
2018-05-24T20:27:55.000Z,30.6
2018-05-24T20:29:55.000Z,30.6
2018-05-24T20:30:55.000Z,30.6
2018-05-24T20:31:55.000Z,30.7
2018-05-24T20:33:55.000Z,30.8
2018-05-24T20:35:55.000Z,30.7
2018-05-24T20:37:55.000Z,30.7
2018-05-24T20:38:55.000Z,30.7
2018-05-24T20:39:55.000Z,30.7
2018-05-24T20:41:55.000Z,30.8
2018-05-24T20:43:55.000Z,30.8
2018-05-24T20:45:55.000Z,30.8
2018-05-24T20:46:55.000Z,30.8
2018-05-24T20:48:56.000Z,30.8
2018-05-24T20:49:56.000Z,30.8
2018-05-24T20:50:56.000Z,30.8
2018-05-24T20:52:56.000Z,30.9
2018-05-24T20:54:56.000Z,30.8
2018-05-24T20:55:56.000Z,30.9
2018-05-24T20:57:56.000Z,30.9
2018-05-24T20:58:56.000Z,30.9
2018-05-24T20:59:56.000Z,30.9